<?xml version="1.0" encoding="UTF-8" standalone="no" ?>
<gpx xmlns="http://www.topografix.com/GPX/1/1" xmlns:xsi="http://www.w3.org/2001/XMLSchema-instance" xsi:schemaLocation="http://www.topografix.com/GPX/1/1 http://www.topografix.com/GPX/1/1/gpx.xsd" version="1.1" creator="VisuGPX - https://www.visugpx.com">
  <metadata>
    <name>Course à pied en soirée</name>
  </metadata>
  <trk>
    <name><![CDATA[Course à pied en soirée_1]]></name>
    <trkseg>
      <trkpt lat="48.7115" lon="7.16291">
        <ele>316.9</ele>
        <time>2023-10-12T17:22:15Z</time>
      </trkpt>
      <trkpt lat="48.71155" lon="7.16273">
        <ele>316.3</ele>
        <time>2023-10-12T17:22:19Z</time>
      </trkpt>
      <trkpt lat="48.71173" lon="7.16261">
        <ele>315.5</ele>
        <time>2023-10-12T17:22:27Z</time>
      </trkpt>
      <trkpt lat="48.71191" lon="7.16251">
        <ele>314.8</ele>
        <time>2023-10-12T17:22:34Z</time>
      </trkpt>
      <trkpt lat="48.7121" lon="7.16257">
        <ele>313.8</ele>
        <time>2023-10-12T17:22:40Z</time>
      </trkpt>
      <trkpt lat="48.71228" lon="7.16271">
        <ele>313.2</ele>
        <time>2023-10-12T17:22:46Z</time>
      </trkpt>
      <trkpt lat="48.71245" lon="7.16287">
        <ele>312.8</ele>
        <time>2023-10-12T17:22:52Z</time>
      </trkpt>
      <trkpt lat="48.71261" lon="7.16302">
        <ele>312.4</ele>
        <time>2023-10-12T17:22:58Z</time>
      </trkpt>
      <trkpt lat="48.71276" lon="7.16318">
        <ele>312.2</ele>
        <time>2023-10-12T17:23:04Z</time>
      </trkpt>
      <trkpt lat="48.71292" lon="7.16333">
        <ele>312</ele>
        <time>2023-10-12T17:23:10Z</time>
      </trkpt>
      <trkpt lat="48.71311" lon="7.16347">
        <ele>311.7</ele>
        <time>2023-10-12T17:23:17Z</time>
      </trkpt>
      <trkpt lat="48.7133" lon="7.16358">
        <ele>311.5</ele>
        <time>2023-10-12T17:23:24Z</time>
      </trkpt>
      <trkpt lat="48.71347" lon="7.16368">
        <ele>311.2</ele>
        <time>2023-10-12T17:23:30Z</time>
      </trkpt>
      <trkpt lat="48.71366" lon="7.16378">
        <ele>310.8</ele>
        <time>2023-10-12T17:23:37Z</time>
      </trkpt>
      <trkpt lat="48.71385" lon="7.16386">
        <ele>310.1</ele>
        <time>2023-10-12T17:23:44Z</time>
      </trkpt>
      <trkpt lat="48.71404" lon="7.16394">
        <ele>309.3</ele>
        <time>2023-10-12T17:23:51Z</time>
      </trkpt>
      <trkpt lat="48.71423" lon="7.16403">
        <ele>308.3</ele>
        <time>2023-10-12T17:23:59Z</time>
      </trkpt>
      <trkpt lat="48.71443" lon="7.16407">
        <ele>307.3</ele>
        <time>2023-10-12T17:24:06Z</time>
      </trkpt>
      <trkpt lat="48.71463" lon="7.16408">
        <ele>306.2</ele>
        <time>2023-10-12T17:24:13Z</time>
      </trkpt>
      <trkpt lat="48.71483" lon="7.16409">
        <ele>305.2</ele>
        <time>2023-10-12T17:24:20Z</time>
      </trkpt>
      <trkpt lat="48.71486" lon="7.16416">
        <ele>306</ele>
        <time>2023-10-12T17:24:21Z</time>
      </trkpt>
      <trkpt lat="48.71479" lon="7.16443">
        <ele>307.9</ele>
        <time>2023-10-12T17:24:30Z</time>
      </trkpt>
      <trkpt lat="48.71467" lon="7.16467">
        <ele>310.4</ele>
        <time>2023-10-12T17:24:38Z</time>
      </trkpt>
      <trkpt lat="48.71455" lon="7.16489">
        <ele>312.6</ele>
        <time>2023-10-12T17:24:46Z</time>
      </trkpt>
      <trkpt lat="48.71443" lon="7.16511">
        <ele>315.1</ele>
        <time>2023-10-12T17:24:54Z</time>
      </trkpt>
      <trkpt lat="48.71432" lon="7.16534">
        <ele>317.6</ele>
        <time>2023-10-12T17:25:03Z</time>
      </trkpt>
      <trkpt lat="48.7142" lon="7.16558">
        <ele>319.6</ele>
        <time>2023-10-12T17:25:13Z</time>
      </trkpt>
      <trkpt lat="48.7141" lon="7.16582">
        <ele>321.5</ele>
        <time>2023-10-12T17:25:22Z</time>
      </trkpt>
      <trkpt lat="48.71401" lon="7.16608">
        <ele>323.6</ele>
        <time>2023-10-12T17:25:31Z</time>
      </trkpt>
      <trkpt lat="48.71391" lon="7.16632">
        <ele>325.5</ele>
        <time>2023-10-12T17:25:39Z</time>
      </trkpt>
      <trkpt lat="48.71381" lon="7.16656">
        <ele>327.5</ele>
        <time>2023-10-12T17:25:47Z</time>
      </trkpt>
      <trkpt lat="48.71372" lon="7.16684">
        <ele>329.8</ele>
        <time>2023-10-12T17:25:56Z</time>
      </trkpt>
      <trkpt lat="48.71363" lon="7.16709">
        <ele>330.4</ele>
        <time>2023-10-12T17:26:04Z</time>
      </trkpt>
      <trkpt lat="48.71352" lon="7.16733">
        <ele>331.2</ele>
        <time>2023-10-12T17:26:11Z</time>
      </trkpt>
      <trkpt lat="48.7134" lon="7.16757">
        <ele>332.4</ele>
        <time>2023-10-12T17:26:18Z</time>
      </trkpt>
      <trkpt lat="48.71328" lon="7.16781">
        <ele>333.6</ele>
        <time>2023-10-12T17:26:26Z</time>
      </trkpt>
      <trkpt lat="48.71314" lon="7.16803">
        <ele>334.6</ele>
        <time>2023-10-12T17:26:34Z</time>
      </trkpt>
      <trkpt lat="48.71302" lon="7.16823">
        <ele>335.4</ele>
        <time>2023-10-12T17:26:41Z</time>
      </trkpt>
      <trkpt lat="48.7129" lon="7.16843">
        <ele>336.1</ele>
        <time>2023-10-12T17:26:48Z</time>
      </trkpt>
      <trkpt lat="48.71277" lon="7.16864">
        <ele>336.5</ele>
        <time>2023-10-12T17:26:55Z</time>
      </trkpt>
      <trkpt lat="48.71264" lon="7.16887">
        <ele>337</ele>
        <time>2023-10-12T17:27:02Z</time>
      </trkpt>
      <trkpt lat="48.71252" lon="7.16908">
        <ele>337.7</ele>
        <time>2023-10-12T17:27:09Z</time>
      </trkpt>
      <trkpt lat="48.71235" lon="7.16925">
        <ele>338.6</ele>
        <time>2023-10-12T17:27:17Z</time>
      </trkpt>
      <trkpt lat="48.71218" lon="7.16932">
        <ele>339.4</ele>
        <time>2023-10-12T17:27:24Z</time>
      </trkpt>
      <trkpt lat="48.71198" lon="7.16931">
        <ele>340.7</ele>
        <time>2023-10-12T17:27:32Z</time>
      </trkpt>
      <trkpt lat="48.7118" lon="7.16928">
        <ele>341.5</ele>
        <time>2023-10-12T17:27:39Z</time>
      </trkpt>
      <trkpt lat="48.71161" lon="7.16926">
        <ele>342.2</ele>
        <time>2023-10-12T17:27:46Z</time>
      </trkpt>
      <trkpt lat="48.71141" lon="7.16931">
        <ele>342.9</ele>
        <time>2023-10-12T17:27:53Z</time>
      </trkpt>
      <trkpt lat="48.71122" lon="7.16936">
        <ele>343.9</ele>
        <time>2023-10-12T17:28:00Z</time>
      </trkpt>
      <trkpt lat="48.71103" lon="7.16942">
        <ele>344.7</ele>
        <time>2023-10-12T17:28:07Z</time>
      </trkpt>
      <trkpt lat="48.71086" lon="7.16954">
        <ele>345.2</ele>
        <time>2023-10-12T17:28:14Z</time>
      </trkpt>
      <trkpt lat="48.71069" lon="7.16969">
        <ele>345.9</ele>
        <time>2023-10-12T17:28:21Z</time>
      </trkpt>
      <trkpt lat="48.71052" lon="7.16986">
        <ele>346.9</ele>
        <time>2023-10-12T17:28:28Z</time>
      </trkpt>
      <trkpt lat="48.71037" lon="7.17004">
        <ele>347.6</ele>
        <time>2023-10-12T17:28:35Z</time>
      </trkpt>
      <trkpt lat="48.71023" lon="7.17025">
        <ele>348.5</ele>
        <time>2023-10-12T17:28:42Z</time>
      </trkpt>
      <trkpt lat="48.71011" lon="7.17048">
        <ele>349.6</ele>
        <time>2023-10-12T17:28:49Z</time>
      </trkpt>
      <trkpt lat="48.71" lon="7.17071">
        <ele>350.4</ele>
        <time>2023-10-12T17:28:56Z</time>
      </trkpt>
      <trkpt lat="48.70988" lon="7.17097">
        <ele>350.8</ele>
        <time>2023-10-12T17:29:04Z</time>
      </trkpt>
      <trkpt lat="48.70978" lon="7.17123">
        <ele>351.1</ele>
        <time>2023-10-12T17:29:11Z</time>
      </trkpt>
      <trkpt lat="48.70971" lon="7.17148">
        <ele>351.5</ele>
        <time>2023-10-12T17:29:17Z</time>
      </trkpt>
      <trkpt lat="48.70964" lon="7.17174">
        <ele>352</ele>
        <time>2023-10-12T17:29:23Z</time>
      </trkpt>
      <trkpt lat="48.70957" lon="7.172">
        <ele>352.6</ele>
        <time>2023-10-12T17:29:29Z</time>
      </trkpt>
      <trkpt lat="48.70951" lon="7.17226">
        <ele>353</ele>
        <time>2023-10-12T17:29:35Z</time>
      </trkpt>
      <trkpt lat="48.70945" lon="7.17253">
        <ele>353.3</ele>
        <time>2023-10-12T17:29:41Z</time>
      </trkpt>
      <trkpt lat="48.70943" lon="7.17284">
        <ele>353.6</ele>
        <time>2023-10-12T17:29:48Z</time>
      </trkpt>
      <trkpt lat="48.70952" lon="7.17312">
        <ele>353.9</ele>
        <time>2023-10-12T17:29:55Z</time>
      </trkpt>
      <trkpt lat="48.70962" lon="7.17337">
        <ele>354.1</ele>
        <time>2023-10-12T17:30:01Z</time>
      </trkpt>
      <trkpt lat="48.7097" lon="7.17364">
        <ele>354.3</ele>
        <time>2023-10-12T17:30:07Z</time>
      </trkpt>
      <trkpt lat="48.70978" lon="7.1739">
        <ele>354.4</ele>
        <time>2023-10-12T17:30:13Z</time>
      </trkpt>
      <trkpt lat="48.70986" lon="7.17417">
        <ele>354.6</ele>
        <time>2023-10-12T17:30:19Z</time>
      </trkpt>
      <trkpt lat="48.70994" lon="7.17444">
        <ele>354.7</ele>
        <time>2023-10-12T17:30:25Z</time>
      </trkpt>
      <trkpt lat="48.71001" lon="7.17472">
        <ele>354.9</ele>
        <time>2023-10-12T17:30:31Z</time>
      </trkpt>
      <trkpt lat="48.71004" lon="7.17502">
        <ele>355.2</ele>
        <time>2023-10-12T17:30:37Z</time>
      </trkpt>
      <trkpt lat="48.71002" lon="7.17531">
        <ele>355.5</ele>
        <time>2023-10-12T17:30:43Z</time>
      </trkpt>
      <trkpt lat="48.71001" lon="7.1756">
        <ele>355.9</ele>
        <time>2023-10-12T17:30:49Z</time>
      </trkpt>
      <trkpt lat="48.71" lon="7.17589">
        <ele>356.3</ele>
        <time>2023-10-12T17:30:55Z</time>
      </trkpt>
      <trkpt lat="48.71001" lon="7.17618">
        <ele>356.8</ele>
        <time>2023-10-12T17:31:01Z</time>
      </trkpt>
      <trkpt lat="48.71006" lon="7.17647">
        <ele>357.3</ele>
        <time>2023-10-12T17:31:07Z</time>
      </trkpt>
      <trkpt lat="48.71014" lon="7.17671">
        <ele>357.6</ele>
        <time>2023-10-12T17:31:13Z</time>
      </trkpt>
      <trkpt lat="48.71026" lon="7.17693">
        <ele>357.9</ele>
        <time>2023-10-12T17:31:19Z</time>
      </trkpt>
      <trkpt lat="48.71041" lon="7.17713">
        <ele>358.1</ele>
        <time>2023-10-12T17:31:25Z</time>
      </trkpt>
      <trkpt lat="48.71055" lon="7.17732">
        <ele>358.3</ele>
        <time>2023-10-12T17:31:31Z</time>
      </trkpt>
      <trkpt lat="48.7107" lon="7.17753">
        <ele>358.4</ele>
        <time>2023-10-12T17:31:37Z</time>
      </trkpt>
      <trkpt lat="48.71084" lon="7.17773">
        <ele>358.5</ele>
        <time>2023-10-12T17:31:43Z</time>
      </trkpt>
      <trkpt lat="48.71099" lon="7.17794">
        <ele>358.5</ele>
        <time>2023-10-12T17:31:49Z</time>
      </trkpt>
      <trkpt lat="48.71113" lon="7.17814">
        <ele>358.6</ele>
        <time>2023-10-12T17:31:55Z</time>
      </trkpt>
      <trkpt lat="48.71126" lon="7.17834">
        <ele>358.5</ele>
        <time>2023-10-12T17:32:01Z</time>
      </trkpt>
      <trkpt lat="48.71129" lon="7.17837">
        <ele>358.5</ele>
        <time>2023-10-12T17:32:02Z</time>
      </trkpt>
      <trkpt lat="48.71137" lon="7.17852">
        <ele>358.5</ele>
        <time>2023-10-12T17:32:07Z</time>
      </trkpt>
      <trkpt lat="48.7115" lon="7.17872">
        <ele>358.6</ele>
        <time>2023-10-12T17:32:14Z</time>
      </trkpt>
      <trkpt lat="48.71164" lon="7.17893">
        <ele>358.7</ele>
        <time>2023-10-12T17:32:20Z</time>
      </trkpt>
      <trkpt lat="48.71177" lon="7.17916">
        <ele>358.9</ele>
        <time>2023-10-12T17:32:26Z</time>
      </trkpt>
      <trkpt lat="48.71189" lon="7.17941">
        <ele>359.1</ele>
        <time>2023-10-12T17:32:32Z</time>
      </trkpt>
      <trkpt lat="48.712" lon="7.17965">
        <ele>359.4</ele>
        <time>2023-10-12T17:32:38Z</time>
      </trkpt>
      <trkpt lat="48.71212" lon="7.1799">
        <ele>359.6</ele>
        <time>2023-10-12T17:32:44Z</time>
      </trkpt>
      <trkpt lat="48.71222" lon="7.18016">
        <ele>359.8</ele>
        <time>2023-10-12T17:32:50Z</time>
      </trkpt>
      <trkpt lat="48.71233" lon="7.1804">
        <ele>360</ele>
        <time>2023-10-12T17:32:56Z</time>
      </trkpt>
      <trkpt lat="48.71244" lon="7.18064">
        <ele>360.2</ele>
        <time>2023-10-12T17:33:02Z</time>
      </trkpt>
      <trkpt lat="48.71254" lon="7.18089">
        <ele>360.5</ele>
        <time>2023-10-12T17:33:08Z</time>
      </trkpt>
      <trkpt lat="48.71265" lon="7.18112">
        <ele>360.7</ele>
        <time>2023-10-12T17:33:14Z</time>
      </trkpt>
      <trkpt lat="48.71275" lon="7.18136">
        <ele>360.8</ele>
        <time>2023-10-12T17:33:20Z</time>
      </trkpt>
      <trkpt lat="48.71287" lon="7.18161">
        <ele>360.9</ele>
        <time>2023-10-12T17:33:26Z</time>
      </trkpt>
      <trkpt lat="48.71296" lon="7.18186">
        <ele>361.1</ele>
        <time>2023-10-12T17:33:32Z</time>
      </trkpt>
      <trkpt lat="48.71307" lon="7.18211">
        <ele>361.3</ele>
        <time>2023-10-12T17:33:38Z</time>
      </trkpt>
      <trkpt lat="48.71318" lon="7.18235">
        <ele>361.5</ele>
        <time>2023-10-12T17:33:44Z</time>
      </trkpt>
      <trkpt lat="48.71329" lon="7.18259">
        <ele>361.5</ele>
        <time>2023-10-12T17:33:50Z</time>
      </trkpt>
      <trkpt lat="48.71342" lon="7.18283">
        <ele>361.5</ele>
        <time>2023-10-12T17:33:56Z</time>
      </trkpt>
      <trkpt lat="48.71355" lon="7.18308">
        <ele>361.6</ele>
        <time>2023-10-12T17:34:02Z</time>
      </trkpt>
      <trkpt lat="48.71368" lon="7.18332">
        <ele>361.6</ele>
        <time>2023-10-12T17:34:08Z</time>
      </trkpt>
      <trkpt lat="48.7138" lon="7.18357">
        <ele>361.7</ele>
        <time>2023-10-12T17:34:14Z</time>
      </trkpt>
      <trkpt lat="48.71392" lon="7.1838">
        <ele>362.2</ele>
        <time>2023-10-12T17:34:20Z</time>
      </trkpt>
      <trkpt lat="48.71404" lon="7.18403">
        <ele>362.8</ele>
        <time>2023-10-12T17:34:26Z</time>
      </trkpt>
      <trkpt lat="48.71415" lon="7.18428">
        <ele>363</ele>
        <time>2023-10-12T17:34:32Z</time>
      </trkpt>
      <trkpt lat="48.71428" lon="7.18454">
        <ele>363.1</ele>
        <time>2023-10-12T17:34:38Z</time>
      </trkpt>
      <trkpt lat="48.71439" lon="7.18479">
        <ele>363.3</ele>
        <time>2023-10-12T17:34:44Z</time>
      </trkpt>
      <trkpt lat="48.71451" lon="7.18504">
        <ele>363.4</ele>
        <time>2023-10-12T17:34:50Z</time>
      </trkpt>
      <trkpt lat="48.71461" lon="7.18529">
        <ele>363.5</ele>
        <time>2023-10-12T17:34:56Z</time>
      </trkpt>
      <trkpt lat="48.71472" lon="7.18553">
        <ele>363.5</ele>
        <time>2023-10-12T17:35:02Z</time>
      </trkpt>
      <trkpt lat="48.71482" lon="7.18578">
        <ele>363.5</ele>
        <time>2023-10-12T17:35:08Z</time>
      </trkpt>
      <trkpt lat="48.71493" lon="7.18603">
        <ele>363.5</ele>
        <time>2023-10-12T17:35:14Z</time>
      </trkpt>
      <trkpt lat="48.71504" lon="7.18628">
        <ele>363.5</ele>
        <time>2023-10-12T17:35:20Z</time>
      </trkpt>
      <trkpt lat="48.71516" lon="7.18652">
        <ele>363.5</ele>
        <time>2023-10-12T17:35:26Z</time>
      </trkpt>
      <trkpt lat="48.71527" lon="7.18677">
        <ele>363.5</ele>
        <time>2023-10-12T17:35:32Z</time>
      </trkpt>
      <trkpt lat="48.71538" lon="7.18699">
        <ele>363.4</ele>
        <time>2023-10-12T17:35:38Z</time>
      </trkpt>
      <trkpt lat="48.71548" lon="7.18724">
        <ele>363.3</ele>
        <time>2023-10-12T17:35:44Z</time>
      </trkpt>
      <trkpt lat="48.71558" lon="7.18749">
        <ele>363.2</ele>
        <time>2023-10-12T17:35:50Z</time>
      </trkpt>
      <trkpt lat="48.7157" lon="7.18774">
        <ele>363.1</ele>
        <time>2023-10-12T17:35:56Z</time>
      </trkpt>
      <trkpt lat="48.71581" lon="7.188">
        <ele>362.9</ele>
        <time>2023-10-12T17:36:02Z</time>
      </trkpt>
      <trkpt lat="48.7159" lon="7.18824">
        <ele>362.8</ele>
        <time>2023-10-12T17:36:08Z</time>
      </trkpt>
      <trkpt lat="48.71602" lon="7.18848">
        <ele>362.7</ele>
        <time>2023-10-12T17:36:14Z</time>
      </trkpt>
      <trkpt lat="48.71605" lon="7.18877">
        <ele>362.5</ele>
        <time>2023-10-12T17:36:20Z</time>
      </trkpt>
      <trkpt lat="48.716" lon="7.18884">
        <ele>362.6</ele>
        <time>2023-10-12T17:36:21Z</time>
      </trkpt>
      <trkpt lat="48.71585" lon="7.189">
        <ele>362.7</ele>
        <time>2023-10-12T17:36:28Z</time>
      </trkpt>
      <trkpt lat="48.71569" lon="7.18915">
        <ele>362.9</ele>
        <time>2023-10-12T17:36:34Z</time>
      </trkpt>
      <trkpt lat="48.71553" lon="7.1893">
        <ele>363.1</ele>
        <time>2023-10-12T17:36:40Z</time>
      </trkpt>
      <trkpt lat="48.71537" lon="7.18945">
        <ele>363.4</ele>
        <time>2023-10-12T17:36:46Z</time>
      </trkpt>
      <trkpt lat="48.71519" lon="7.18962">
        <ele>363.6</ele>
        <time>2023-10-12T17:36:53Z</time>
      </trkpt>
      <trkpt lat="48.71505" lon="7.18981">
        <ele>363.9</ele>
        <time>2023-10-12T17:36:59Z</time>
      </trkpt>
      <trkpt lat="48.71491" lon="7.19">
        <ele>364.1</ele>
        <time>2023-10-12T17:37:05Z</time>
      </trkpt>
      <trkpt lat="48.71489" lon="7.19009">
        <ele>364.3</ele>
        <time>2023-10-12T17:37:06Z</time>
      </trkpt>
      <trkpt lat="48.71486" lon="7.19038">
        <ele>364.7</ele>
        <time>2023-10-12T17:37:13Z</time>
      </trkpt>
      <trkpt lat="48.71483" lon="7.19068">
        <ele>365.2</ele>
        <time>2023-10-12T17:37:19Z</time>
      </trkpt>
      <trkpt lat="48.71483" lon="7.19099">
        <ele>365.8</ele>
        <time>2023-10-12T17:37:26Z</time>
      </trkpt>
      <trkpt lat="48.71483" lon="7.19129">
        <ele>366.4</ele>
        <time>2023-10-12T17:37:33Z</time>
      </trkpt>
      <trkpt lat="48.71484" lon="7.1916">
        <ele>366.8</ele>
        <time>2023-10-12T17:37:40Z</time>
      </trkpt>
      <trkpt lat="48.71483" lon="7.19191">
        <ele>367.8</ele>
        <time>2023-10-12T17:37:47Z</time>
      </trkpt>
      <trkpt lat="48.71484" lon="7.19221">
        <ele>369.1</ele>
        <time>2023-10-12T17:37:54Z</time>
      </trkpt>
      <trkpt lat="48.71485" lon="7.1925">
        <ele>370.2</ele>
        <time>2023-10-12T17:38:01Z</time>
      </trkpt>
      <trkpt lat="48.71485" lon="7.19281">
        <ele>371.3</ele>
        <time>2023-10-12T17:38:08Z</time>
      </trkpt>
      <trkpt lat="48.71487" lon="7.1931">
        <ele>372.4</ele>
        <time>2023-10-12T17:38:15Z</time>
      </trkpt>
      <trkpt lat="48.7149" lon="7.19339">
        <ele>373.6</ele>
        <time>2023-10-12T17:38:22Z</time>
      </trkpt>
      <trkpt lat="48.71491" lon="7.19368">
        <ele>374.6</ele>
        <time>2023-10-12T17:38:29Z</time>
      </trkpt>
      <trkpt lat="48.71493" lon="7.19397">
        <ele>375.5</ele>
        <time>2023-10-12T17:38:36Z</time>
      </trkpt>
      <trkpt lat="48.71493" lon="7.19425">
        <ele>376.1</ele>
        <time>2023-10-12T17:38:42Z</time>
      </trkpt>
      <trkpt lat="48.71488" lon="7.19455">
        <ele>376.9</ele>
        <time>2023-10-12T17:38:49Z</time>
      </trkpt>
      <trkpt lat="48.71483" lon="7.19484">
        <ele>377.6</ele>
        <time>2023-10-12T17:38:56Z</time>
      </trkpt>
      <trkpt lat="48.71479" lon="7.19511">
        <ele>378.1</ele>
        <time>2023-10-12T17:39:02Z</time>
      </trkpt>
      <trkpt lat="48.71475" lon="7.19538">
        <ele>378.4</ele>
        <time>2023-10-12T17:39:08Z</time>
      </trkpt>
      <trkpt lat="48.71469" lon="7.19567">
        <ele>378.8</ele>
        <time>2023-10-12T17:39:14Z</time>
      </trkpt>
      <trkpt lat="48.71461" lon="7.19594">
        <ele>379.3</ele>
        <time>2023-10-12T17:39:20Z</time>
      </trkpt>
      <trkpt lat="48.71456" lon="7.19622">
        <ele>379.5</ele>
        <time>2023-10-12T17:39:26Z</time>
      </trkpt>
      <trkpt lat="48.71453" lon="7.1965">
        <ele>379.3</ele>
        <time>2023-10-12T17:39:32Z</time>
      </trkpt>
      <trkpt lat="48.7145" lon="7.19678">
        <ele>378.9</ele>
        <time>2023-10-12T17:39:38Z</time>
      </trkpt>
      <trkpt lat="48.71448" lon="7.19708">
        <ele>378.3</ele>
        <time>2023-10-12T17:39:44Z</time>
      </trkpt>
      <trkpt lat="48.71447" lon="7.19739">
        <ele>377.5</ele>
        <time>2023-10-12T17:39:50Z</time>
      </trkpt>
      <trkpt lat="48.71445" lon="7.19769">
        <ele>376.2</ele>
        <time>2023-10-12T17:39:56Z</time>
      </trkpt>
      <trkpt lat="48.71445" lon="7.19799">
        <ele>374.6</ele>
        <time>2023-10-12T17:40:02Z</time>
      </trkpt>
      <trkpt lat="48.71444" lon="7.1983">
        <ele>372.9</ele>
        <time>2023-10-12T17:40:08Z</time>
      </trkpt>
      <trkpt lat="48.71444" lon="7.19861">
        <ele>371.1</ele>
        <time>2023-10-12T17:40:14Z</time>
      </trkpt>
      <trkpt lat="48.71444" lon="7.19892">
        <ele>369.6</ele>
        <time>2023-10-12T17:40:20Z</time>
      </trkpt>
      <trkpt lat="48.71443" lon="7.19921">
        <ele>368.3</ele>
        <time>2023-10-12T17:40:25Z</time>
      </trkpt>
      <trkpt lat="48.71443" lon="7.19953">
        <ele>367.4</ele>
        <time>2023-10-12T17:40:30Z</time>
      </trkpt>
      <trkpt lat="48.71441" lon="7.19981">
        <ele>366.8</ele>
        <time>2023-10-12T17:40:35Z</time>
      </trkpt>
      <trkpt lat="48.71438" lon="7.2001">
        <ele>366.2</ele>
        <time>2023-10-12T17:40:41Z</time>
      </trkpt>
      <trkpt lat="48.7143" lon="7.20036">
        <ele>365.7</ele>
        <time>2023-10-12T17:40:47Z</time>
      </trkpt>
      <trkpt lat="48.71415" lon="7.20054">
        <ele>365.1</ele>
        <time>2023-10-12T17:40:54Z</time>
      </trkpt>
      <trkpt lat="48.71398" lon="7.20056">
        <ele>364.7</ele>
        <time>2023-10-12T17:41:00Z</time>
      </trkpt>
      <trkpt lat="48.71391" lon="7.20029">
        <ele>364.7</ele>
        <time>2023-10-12T17:41:07Z</time>
      </trkpt>
      <trkpt lat="48.71387" lon="7.2">
        <ele>363.2</ele>
        <time>2023-10-12T17:41:13Z</time>
      </trkpt>
      <trkpt lat="48.7138" lon="7.19975">
        <ele>361.8</ele>
        <time>2023-10-12T17:41:19Z</time>
      </trkpt>
      <trkpt lat="48.71367" lon="7.19955">
        <ele>362.6</ele>
        <time>2023-10-12T17:41:26Z</time>
      </trkpt>
      <trkpt lat="48.71347" lon="7.19949">
        <ele>361.7</ele>
        <time>2023-10-12T17:41:33Z</time>
      </trkpt>
      <trkpt lat="48.7133" lon="7.19936">
        <ele>362</ele>
        <time>2023-10-12T17:41:40Z</time>
      </trkpt>
      <trkpt lat="48.71315" lon="7.19922">
        <ele>362.3</ele>
        <time>2023-10-12T17:41:47Z</time>
      </trkpt>
      <trkpt lat="48.71298" lon="7.1991">
        <ele>361.4</ele>
        <time>2023-10-12T17:41:54Z</time>
      </trkpt>
      <trkpt lat="48.7128" lon="7.19895">
        <ele>361.7</ele>
        <time>2023-10-12T17:42:03Z</time>
      </trkpt>
      <trkpt lat="48.71261" lon="7.19887">
        <ele>360.7</ele>
        <time>2023-10-12T17:42:11Z</time>
      </trkpt>
      <trkpt lat="48.71244" lon="7.19877">
        <ele>360.4</ele>
        <time>2023-10-12T17:42:17Z</time>
      </trkpt>
      <trkpt lat="48.71229" lon="7.19863">
        <ele>360.7</ele>
        <time>2023-10-12T17:42:22Z</time>
      </trkpt>
      <trkpt lat="48.71219" lon="7.19839">
        <ele>360.6</ele>
        <time>2023-10-12T17:42:28Z</time>
      </trkpt>
      <trkpt lat="48.71214" lon="7.19813">
        <ele>360.6</ele>
        <time>2023-10-12T17:42:34Z</time>
      </trkpt>
      <trkpt lat="48.71205" lon="7.19786">
        <ele>359.7</ele>
        <time>2023-10-12T17:42:41Z</time>
      </trkpt>
      <trkpt lat="48.712" lon="7.19759">
        <ele>358.5</ele>
        <time>2023-10-12T17:42:47Z</time>
      </trkpt>
      <trkpt lat="48.71197" lon="7.1973">
        <ele>356.5</ele>
        <time>2023-10-12T17:42:54Z</time>
      </trkpt>
      <trkpt lat="48.71194" lon="7.19702">
        <ele>354.6</ele>
        <time>2023-10-12T17:43:01Z</time>
      </trkpt>
      <trkpt lat="48.71191" lon="7.19674">
        <ele>353.4</ele>
        <time>2023-10-12T17:43:07Z</time>
      </trkpt>
      <trkpt lat="48.7119" lon="7.19642">
        <ele>352.8</ele>
        <time>2023-10-12T17:43:14Z</time>
      </trkpt>
      <trkpt lat="48.71189" lon="7.1961">
        <ele>352.7</ele>
        <time>2023-10-12T17:43:20Z</time>
      </trkpt>
      <trkpt lat="48.71189" lon="7.1958">
        <ele>351.6</ele>
        <time>2023-10-12T17:43:26Z</time>
      </trkpt>
      <trkpt lat="48.71189" lon="7.1955">
        <ele>350.8</ele>
        <time>2023-10-12T17:43:32Z</time>
      </trkpt>
      <trkpt lat="48.7119" lon="7.19518">
        <ele>351</ele>
        <time>2023-10-12T17:43:38Z</time>
      </trkpt>
      <trkpt lat="48.71189" lon="7.19491">
        <ele>349.9</ele>
        <time>2023-10-12T17:43:43Z</time>
      </trkpt>
      <trkpt lat="48.71188" lon="7.19459">
        <ele>350</ele>
        <time>2023-10-12T17:43:49Z</time>
      </trkpt>
      <trkpt lat="48.71188" lon="7.19431">
        <ele>350.6</ele>
        <time>2023-10-12T17:43:55Z</time>
      </trkpt>
      <trkpt lat="48.71186" lon="7.19401">
        <ele>352.2</ele>
        <time>2023-10-12T17:44:02Z</time>
      </trkpt>
      <trkpt lat="48.7118" lon="7.19374">
        <ele>354.6</ele>
        <time>2023-10-12T17:44:10Z</time>
      </trkpt>
      <trkpt lat="48.71167" lon="7.19355">
        <ele>357.1</ele>
        <time>2023-10-12T17:44:18Z</time>
      </trkpt>
      <trkpt lat="48.7115" lon="7.19338">
        <ele>355.1</ele>
        <time>2023-10-12T17:44:26Z</time>
      </trkpt>
      <trkpt lat="48.71134" lon="7.19325">
        <ele>353.1</ele>
        <time>2023-10-12T17:44:33Z</time>
      </trkpt>
      <trkpt lat="48.71116" lon="7.19311">
        <ele>350.8</ele>
        <time>2023-10-12T17:44:41Z</time>
      </trkpt>
      <trkpt lat="48.71098" lon="7.19301">
        <ele>348.5</ele>
        <time>2023-10-12T17:44:48Z</time>
      </trkpt>
      <trkpt lat="48.7108" lon="7.19287">
        <ele>346.5</ele>
        <time>2023-10-12T17:44:55Z</time>
      </trkpt>
      <trkpt lat="48.71065" lon="7.19268">
        <ele>345.6</ele>
        <time>2023-10-12T17:45:02Z</time>
      </trkpt>
      <trkpt lat="48.71051" lon="7.19245">
        <ele>344.8</ele>
        <time>2023-10-12T17:45:09Z</time>
      </trkpt>
      <trkpt lat="48.71047" lon="7.19216">
        <ele>345.7</ele>
        <time>2023-10-12T17:45:16Z</time>
      </trkpt>
      <trkpt lat="48.71048" lon="7.1921">
        <ele>346.2</ele>
        <time>2023-10-12T17:45:19Z</time>
      </trkpt>
      <trkpt lat="48.71066" lon="7.19199">
        <ele>348.4</ele>
        <time>2023-10-12T17:45:34Z</time>
      </trkpt>
      <trkpt lat="48.71069" lon="7.19197">
        <ele>348.7</ele>
        <time>2023-10-12T17:45:35Z</time>
      </trkpt>
      <trkpt lat="48.71083" lon="7.19176">
        <ele>350.5</ele>
        <time>2023-10-12T17:45:48Z</time>
      </trkpt>
      <trkpt lat="48.71095" lon="7.19155">
        <ele>351.3</ele>
        <time>2023-10-12T17:45:58Z</time>
      </trkpt>
      <trkpt lat="48.71102" lon="7.1913">
        <ele>351.2</ele>
        <time>2023-10-12T17:46:06Z</time>
      </trkpt>
      <trkpt lat="48.71114" lon="7.19108">
        <ele>350.9</ele>
        <time>2023-10-12T17:46:12Z</time>
      </trkpt>
      <trkpt lat="48.71127" lon="7.19088">
        <ele>351</ele>
        <time>2023-10-12T17:46:18Z</time>
      </trkpt>
      <trkpt lat="48.71143" lon="7.19072">
        <ele>351.4</ele>
        <time>2023-10-12T17:46:23Z</time>
      </trkpt>
      <trkpt lat="48.71162" lon="7.1906">
        <ele>352.4</ele>
        <time>2023-10-12T17:46:29Z</time>
      </trkpt>
      <trkpt lat="48.71181" lon="7.19048">
        <ele>353.3</ele>
        <time>2023-10-12T17:46:35Z</time>
      </trkpt>
      <trkpt lat="48.71195" lon="7.19031">
        <ele>354.1</ele>
        <time>2023-10-12T17:46:40Z</time>
      </trkpt>
      <trkpt lat="48.7121" lon="7.19013">
        <ele>354.8</ele>
        <time>2023-10-12T17:46:46Z</time>
      </trkpt>
      <trkpt lat="48.71227" lon="7.19001">
        <ele>355.7</ele>
        <time>2023-10-12T17:46:53Z</time>
      </trkpt>
      <trkpt lat="48.71245" lon="7.18993">
        <ele>355.7</ele>
        <time>2023-10-12T17:47:00Z</time>
      </trkpt>
      <trkpt lat="48.71263" lon="7.18978">
        <ele>355.6</ele>
        <time>2023-10-12T17:47:07Z</time>
      </trkpt>
      <trkpt lat="48.71277" lon="7.18962">
        <ele>355.5</ele>
        <time>2023-10-12T17:47:13Z</time>
      </trkpt>
      <trkpt lat="48.71292" lon="7.18946">
        <ele>355.4</ele>
        <time>2023-10-12T17:47:19Z</time>
      </trkpt>
      <trkpt lat="48.71306" lon="7.1893">
        <ele>355.3</ele>
        <time>2023-10-12T17:47:25Z</time>
      </trkpt>
      <trkpt lat="48.71321" lon="7.18913">
        <ele>355.3</ele>
        <time>2023-10-12T17:47:31Z</time>
      </trkpt>
      <trkpt lat="48.71338" lon="7.18895">
        <ele>355.5</ele>
        <time>2023-10-12T17:47:38Z</time>
      </trkpt>
      <trkpt lat="48.71354" lon="7.18878">
        <ele>355.9</ele>
        <time>2023-10-12T17:47:45Z</time>
      </trkpt>
      <trkpt lat="48.7137" lon="7.1886">
        <ele>356.2</ele>
        <time>2023-10-12T17:47:52Z</time>
      </trkpt>
      <trkpt lat="48.71387" lon="7.18846">
        <ele>356.6</ele>
        <time>2023-10-12T17:47:59Z</time>
      </trkpt>
      <trkpt lat="48.71403" lon="7.1883">
        <ele>357</ele>
        <time>2023-10-12T17:48:06Z</time>
      </trkpt>
      <trkpt lat="48.71409" lon="7.18821">
        <ele>357.2</ele>
        <time>2023-10-12T17:48:10Z</time>
      </trkpt>
      <trkpt lat="48.71399" lon="7.18796">
        <ele>355.9</ele>
        <time>2023-10-12T17:48:17Z</time>
      </trkpt>
      <trkpt lat="48.71387" lon="7.18773">
        <ele>354.8</ele>
        <time>2023-10-12T17:48:23Z</time>
      </trkpt>
      <trkpt lat="48.71375" lon="7.18752">
        <ele>354</ele>
        <time>2023-10-12T17:48:28Z</time>
      </trkpt>
      <trkpt lat="48.71362" lon="7.18728">
        <ele>353.2</ele>
        <time>2023-10-12T17:48:34Z</time>
      </trkpt>
      <trkpt lat="48.71349" lon="7.18703">
        <ele>352.6</ele>
        <time>2023-10-12T17:48:40Z</time>
      </trkpt>
      <trkpt lat="48.71338" lon="7.1868">
        <ele>352.5</ele>
        <time>2023-10-12T17:48:46Z</time>
      </trkpt>
      <trkpt lat="48.71327" lon="7.18655">
        <ele>352.7</ele>
        <time>2023-10-12T17:48:53Z</time>
      </trkpt>
      <trkpt lat="48.71317" lon="7.18632">
        <ele>353.1</ele>
        <time>2023-10-12T17:49:00Z</time>
      </trkpt>
      <trkpt lat="48.71308" lon="7.18605">
        <ele>353.9</ele>
        <time>2023-10-12T17:49:08Z</time>
      </trkpt>
      <trkpt lat="48.71305" lon="7.18578">
        <ele>354.4</ele>
        <time>2023-10-12T17:49:16Z</time>
      </trkpt>
      <trkpt lat="48.71318" lon="7.18559">
        <ele>355.9</ele>
        <time>2023-10-12T17:49:24Z</time>
      </trkpt>
      <trkpt lat="48.71334" lon="7.18546">
        <ele>358</ele>
        <time>2023-10-12T17:49:32Z</time>
      </trkpt>
      <trkpt lat="48.71351" lon="7.1853">
        <ele>359.8</ele>
        <time>2023-10-12T17:49:41Z</time>
      </trkpt>
      <trkpt lat="48.71368" lon="7.18515">
        <ele>361.2</ele>
        <time>2023-10-12T17:49:49Z</time>
      </trkpt>
      <trkpt lat="48.71384" lon="7.18501">
        <ele>362.1</ele>
        <time>2023-10-12T17:49:56Z</time>
      </trkpt>
      <trkpt lat="48.714" lon="7.18486">
        <ele>362.8</ele>
        <time>2023-10-12T17:50:03Z</time>
      </trkpt>
      <trkpt lat="48.71415" lon="7.1847">
        <ele>363.1</ele>
        <time>2023-10-12T17:50:10Z</time>
      </trkpt>
      <trkpt lat="48.71416" lon="7.18465">
        <ele>363.1</ele>
        <time>2023-10-12T17:50:11Z</time>
      </trkpt>
      <trkpt lat="48.71416" lon="7.18462">
        <ele>363.1</ele>
        <time>2023-10-12T17:50:13Z</time>
      </trkpt>
      <trkpt lat="48.71405" lon="7.18436">
        <ele>363</ele>
        <time>2023-10-12T17:50:20Z</time>
      </trkpt>
      <trkpt lat="48.71393" lon="7.1841">
        <ele>362.7</ele>
        <time>2023-10-12T17:50:27Z</time>
      </trkpt>
      <trkpt lat="48.71383" lon="7.18387">
        <ele>362.1</ele>
        <time>2023-10-12T17:50:34Z</time>
      </trkpt>
      <trkpt lat="48.71371" lon="7.18364">
        <ele>361.7</ele>
        <time>2023-10-12T17:50:41Z</time>
      </trkpt>
      <trkpt lat="48.71357" lon="7.1834">
        <ele>361.6</ele>
        <time>2023-10-12T17:50:48Z</time>
      </trkpt>
      <trkpt lat="48.71347" lon="7.18317">
        <ele>361.6</ele>
        <time>2023-10-12T17:50:54Z</time>
      </trkpt>
      <trkpt lat="48.71337" lon="7.18292">
        <ele>361.5</ele>
        <time>2023-10-12T17:51:01Z</time>
      </trkpt>
      <trkpt lat="48.71325" lon="7.18266">
        <ele>361.5</ele>
        <time>2023-10-12T17:51:08Z</time>
      </trkpt>
      <trkpt lat="48.71315" lon="7.18241">
        <ele>361.5</ele>
        <time>2023-10-12T17:51:15Z</time>
      </trkpt>
      <trkpt lat="48.71302" lon="7.18217">
        <ele>361.3</ele>
        <time>2023-10-12T17:51:22Z</time>
      </trkpt>
      <trkpt lat="48.71291" lon="7.18194">
        <ele>361.1</ele>
        <time>2023-10-12T17:51:29Z</time>
      </trkpt>
      <trkpt lat="48.71281" lon="7.1817">
        <ele>360.9</ele>
        <time>2023-10-12T17:51:35Z</time>
      </trkpt>
      <trkpt lat="48.71273" lon="7.18145">
        <ele>360.8</ele>
        <time>2023-10-12T17:51:41Z</time>
      </trkpt>
      <trkpt lat="48.71263" lon="7.1812">
        <ele>360.7</ele>
        <time>2023-10-12T17:51:47Z</time>
      </trkpt>
      <trkpt lat="48.71252" lon="7.18095">
        <ele>360.5</ele>
        <time>2023-10-12T17:51:53Z</time>
      </trkpt>
      <trkpt lat="48.71241" lon="7.1807">
        <ele>360.3</ele>
        <time>2023-10-12T17:51:59Z</time>
      </trkpt>
      <trkpt lat="48.7123" lon="7.18045">
        <ele>360.1</ele>
        <time>2023-10-12T17:52:05Z</time>
      </trkpt>
      <trkpt lat="48.71219" lon="7.1802">
        <ele>359.9</ele>
        <time>2023-10-12T17:52:11Z</time>
      </trkpt>
      <trkpt lat="48.71209" lon="7.17994">
        <ele>359.6</ele>
        <time>2023-10-12T17:52:17Z</time>
      </trkpt>
      <trkpt lat="48.71196" lon="7.17969">
        <ele>359.4</ele>
        <time>2023-10-12T17:52:23Z</time>
      </trkpt>
      <trkpt lat="48.71184" lon="7.17945">
        <ele>359.1</ele>
        <time>2023-10-12T17:52:29Z</time>
      </trkpt>
      <trkpt lat="48.7117" lon="7.1792">
        <ele>358.9</ele>
        <time>2023-10-12T17:52:35Z</time>
      </trkpt>
      <trkpt lat="48.71157" lon="7.17895">
        <ele>358.7</ele>
        <time>2023-10-12T17:52:41Z</time>
      </trkpt>
      <trkpt lat="48.71144" lon="7.17873">
        <ele>358.6</ele>
        <time>2023-10-12T17:52:47Z</time>
      </trkpt>
      <trkpt lat="48.71132" lon="7.17853">
        <ele>358.5</ele>
        <time>2023-10-12T17:52:53Z</time>
      </trkpt>
      <trkpt lat="48.71118" lon="7.17833">
        <ele>358.6</ele>
        <time>2023-10-12T17:52:59Z</time>
      </trkpt>
      <trkpt lat="48.71104" lon="7.17813">
        <ele>358.5</ele>
        <time>2023-10-12T17:53:05Z</time>
      </trkpt>
      <trkpt lat="48.71091" lon="7.17792">
        <ele>358.5</ele>
        <time>2023-10-12T17:53:11Z</time>
      </trkpt>
      <trkpt lat="48.71077" lon="7.17773">
        <ele>358.5</ele>
        <time>2023-10-12T17:53:17Z</time>
      </trkpt>
      <trkpt lat="48.71063" lon="7.17754">
        <ele>358.4</ele>
        <time>2023-10-12T17:53:23Z</time>
      </trkpt>
      <trkpt lat="48.7105" lon="7.17732">
        <ele>358.3</ele>
        <time>2023-10-12T17:53:29Z</time>
      </trkpt>
      <trkpt lat="48.71036" lon="7.17713">
        <ele>358.1</ele>
        <time>2023-10-12T17:53:35Z</time>
      </trkpt>
      <trkpt lat="48.71022" lon="7.17693">
        <ele>357.8</ele>
        <time>2023-10-12T17:53:41Z</time>
      </trkpt>
      <trkpt lat="48.7101" lon="7.17672">
        <ele>357.6</ele>
        <time>2023-10-12T17:53:47Z</time>
      </trkpt>
      <trkpt lat="48.70999" lon="7.17649">
        <ele>357.3</ele>
        <time>2023-10-12T17:53:53Z</time>
      </trkpt>
      <trkpt lat="48.70993" lon="7.17621">
        <ele>356.8</ele>
        <time>2023-10-12T17:53:59Z</time>
      </trkpt>
      <trkpt lat="48.7099" lon="7.17592">
        <ele>356.2</ele>
        <time>2023-10-12T17:54:05Z</time>
      </trkpt>
      <trkpt lat="48.7099" lon="7.1756">
        <ele>355.8</ele>
        <time>2023-10-12T17:54:11Z</time>
      </trkpt>
      <trkpt lat="48.70991" lon="7.17531">
        <ele>355.5</ele>
        <time>2023-10-12T17:54:17Z</time>
      </trkpt>
      <trkpt lat="48.70992" lon="7.17501">
        <ele>355.1</ele>
        <time>2023-10-12T17:54:23Z</time>
      </trkpt>
      <trkpt lat="48.70991" lon="7.17471">
        <ele>354.9</ele>
        <time>2023-10-12T17:54:29Z</time>
      </trkpt>
      <trkpt lat="48.70986" lon="7.17441">
        <ele>354.7</ele>
        <time>2023-10-12T17:54:35Z</time>
      </trkpt>
      <trkpt lat="48.70979" lon="7.17413">
        <ele>354.5</ele>
        <time>2023-10-12T17:54:41Z</time>
      </trkpt>
      <trkpt lat="48.7097" lon="7.17384">
        <ele>354.4</ele>
        <time>2023-10-12T17:54:47Z</time>
      </trkpt>
      <trkpt lat="48.70962" lon="7.17356">
        <ele>354.2</ele>
        <time>2023-10-12T17:54:53Z</time>
      </trkpt>
      <trkpt lat="48.70954" lon="7.17328">
        <ele>354</ele>
        <time>2023-10-12T17:54:59Z</time>
      </trkpt>
      <trkpt lat="48.70947" lon="7.17303">
        <ele>353.7</ele>
        <time>2023-10-12T17:55:04Z</time>
      </trkpt>
      <trkpt lat="48.7094" lon="7.17277">
        <ele>353.5</ele>
        <time>2023-10-12T17:55:09Z</time>
      </trkpt>
      <trkpt lat="48.70936" lon="7.17247">
        <ele>353.3</ele>
        <time>2023-10-12T17:55:15Z</time>
      </trkpt>
      <trkpt lat="48.70944" lon="7.17216">
        <ele>352.9</ele>
        <time>2023-10-12T17:55:21Z</time>
      </trkpt>
      <trkpt lat="48.70951" lon="7.17188">
        <ele>352.4</ele>
        <time>2023-10-12T17:55:27Z</time>
      </trkpt>
      <trkpt lat="48.7096" lon="7.1716">
        <ele>351.8</ele>
        <time>2023-10-12T17:55:33Z</time>
      </trkpt>
      <trkpt lat="48.70969" lon="7.17132">
        <ele>351.3</ele>
        <time>2023-10-12T17:55:39Z</time>
      </trkpt>
      <trkpt lat="48.70979" lon="7.17105">
        <ele>350.9</ele>
        <time>2023-10-12T17:55:45Z</time>
      </trkpt>
      <trkpt lat="48.70989" lon="7.17078">
        <ele>350.6</ele>
        <time>2023-10-12T17:55:51Z</time>
      </trkpt>
      <trkpt lat="48.70996" lon="7.17048">
        <ele>350.4</ele>
        <time>2023-10-12T17:55:57Z</time>
      </trkpt>
      <trkpt lat="48.70997" lon="7.17018">
        <ele>350.1</ele>
        <time>2023-10-12T17:56:03Z</time>
      </trkpt>
      <trkpt lat="48.70992" lon="7.16991">
        <ele>349.7</ele>
        <time>2023-10-12T17:56:09Z</time>
      </trkpt>
      <trkpt lat="48.7099" lon="7.16964">
        <ele>349.3</ele>
        <time>2023-10-12T17:56:15Z</time>
      </trkpt>
      <trkpt lat="48.70989" lon="7.16934">
        <ele>348.5</ele>
        <time>2023-10-12T17:56:21Z</time>
      </trkpt>
      <trkpt lat="48.70986" lon="7.16904">
        <ele>347.8</ele>
        <time>2023-10-12T17:56:27Z</time>
      </trkpt>
      <trkpt lat="48.70979" lon="7.16875">
        <ele>347.4</ele>
        <time>2023-10-12T17:56:33Z</time>
      </trkpt>
      <trkpt lat="48.70967" lon="7.16853">
        <ele>347</ele>
        <time>2023-10-12T17:56:39Z</time>
      </trkpt>
      <trkpt lat="48.70956" lon="7.16827">
        <ele>346.5</ele>
        <time>2023-10-12T17:56:45Z</time>
      </trkpt>
      <trkpt lat="48.70954" lon="7.16797">
        <ele>346.1</ele>
        <time>2023-10-12T17:56:51Z</time>
      </trkpt>
      <trkpt lat="48.70954" lon="7.16769">
        <ele>345.7</ele>
        <time>2023-10-12T17:56:57Z</time>
      </trkpt>
      <trkpt lat="48.70948" lon="7.16742">
        <ele>345.4</ele>
        <time>2023-10-12T17:57:03Z</time>
      </trkpt>
      <trkpt lat="48.70936" lon="7.16719">
        <ele>345.2</ele>
        <time>2023-10-12T17:57:09Z</time>
      </trkpt>
      <trkpt lat="48.7092" lon="7.16702">
        <ele>345.2</ele>
        <time>2023-10-12T17:57:15Z</time>
      </trkpt>
      <trkpt lat="48.70905" lon="7.16684">
        <ele>345.3</ele>
        <time>2023-10-12T17:57:21Z</time>
      </trkpt>
      <trkpt lat="48.7089" lon="7.16666">
        <ele>345.3</ele>
        <time>2023-10-12T17:57:27Z</time>
      </trkpt>
      <trkpt lat="48.70874" lon="7.16645">
        <ele>345.3</ele>
        <time>2023-10-12T17:57:34Z</time>
      </trkpt>
      <trkpt lat="48.70858" lon="7.16624">
        <ele>345.4</ele>
        <time>2023-10-12T17:57:41Z</time>
      </trkpt>
      <trkpt lat="48.70844" lon="7.16605">
        <ele>345.4</ele>
        <time>2023-10-12T17:57:47Z</time>
      </trkpt>
      <trkpt lat="48.70828" lon="7.16586">
        <ele>345.6</ele>
        <time>2023-10-12T17:57:54Z</time>
      </trkpt>
      <trkpt lat="48.70809" lon="7.16572">
        <ele>345.6</ele>
        <time>2023-10-12T17:58:01Z</time>
      </trkpt>
      <trkpt lat="48.70791" lon="7.16559">
        <ele>345.8</ele>
        <time>2023-10-12T17:58:08Z</time>
      </trkpt>
      <trkpt lat="48.70773" lon="7.16546">
        <ele>346.2</ele>
        <time>2023-10-12T17:58:15Z</time>
      </trkpt>
      <trkpt lat="48.70755" lon="7.16531">
        <ele>346.5</ele>
        <time>2023-10-12T17:58:22Z</time>
      </trkpt>
      <trkpt lat="48.70738" lon="7.16515">
        <ele>346.9</ele>
        <time>2023-10-12T17:58:29Z</time>
      </trkpt>
      <trkpt lat="48.70723" lon="7.165">
        <ele>347.2</ele>
        <time>2023-10-12T17:58:35Z</time>
      </trkpt>
      <trkpt lat="48.70708" lon="7.16484">
        <ele>347.5</ele>
        <time>2023-10-12T17:58:41Z</time>
      </trkpt>
      <trkpt lat="48.70692" lon="7.16466">
        <ele>347.6</ele>
        <time>2023-10-12T17:58:48Z</time>
      </trkpt>
      <trkpt lat="48.70676" lon="7.1645">
        <ele>347.6</ele>
        <time>2023-10-12T17:58:55Z</time>
      </trkpt>
      <trkpt lat="48.70659" lon="7.16435">
        <ele>347.4</ele>
        <time>2023-10-12T17:59:02Z</time>
      </trkpt>
      <trkpt lat="48.7065" lon="7.16435">
        <ele>347.7</ele>
        <time>2023-10-12T17:59:06Z</time>
      </trkpt>
      <trkpt lat="48.70639" lon="7.16461">
        <ele>348.5</ele>
        <time>2023-10-12T17:59:13Z</time>
      </trkpt>
      <trkpt lat="48.70628" lon="7.16483">
        <ele>349.4</ele>
        <time>2023-10-12T17:59:19Z</time>
      </trkpt>
      <trkpt lat="48.70616" lon="7.16507">
        <ele>350.6</ele>
        <time>2023-10-12T17:59:26Z</time>
      </trkpt>
      <trkpt lat="48.70603" lon="7.16529">
        <ele>351.6</ele>
        <time>2023-10-12T17:59:33Z</time>
      </trkpt>
      <trkpt lat="48.7059" lon="7.16552">
        <ele>352.6</ele>
        <time>2023-10-12T17:59:40Z</time>
      </trkpt>
      <trkpt lat="48.70576" lon="7.16574">
        <ele>353.5</ele>
        <time>2023-10-12T17:59:47Z</time>
      </trkpt>
      <trkpt lat="48.70563" lon="7.16596">
        <ele>354.4</ele>
        <time>2023-10-12T17:59:54Z</time>
      </trkpt>
      <trkpt lat="48.70549" lon="7.16616">
        <ele>355.2</ele>
        <time>2023-10-12T18:00:01Z</time>
      </trkpt>
      <trkpt lat="48.70537" lon="7.16637">
        <ele>355.9</ele>
        <time>2023-10-12T18:00:08Z</time>
      </trkpt>
      <trkpt lat="48.70524" lon="7.16659">
        <ele>356.6</ele>
        <time>2023-10-12T18:00:15Z</time>
      </trkpt>
      <trkpt lat="48.70512" lon="7.16681">
        <ele>356.7</ele>
        <time>2023-10-12T18:00:22Z</time>
      </trkpt>
      <trkpt lat="48.705" lon="7.16706">
        <ele>356.4</ele>
        <time>2023-10-12T18:00:29Z</time>
      </trkpt>
      <trkpt lat="48.70488" lon="7.16731">
        <ele>355.8</ele>
        <time>2023-10-12T18:00:36Z</time>
      </trkpt>
      <trkpt lat="48.70475" lon="7.16752">
        <ele>355</ele>
        <time>2023-10-12T18:00:42Z</time>
      </trkpt>
      <trkpt lat="48.70461" lon="7.16772">
        <ele>354.2</ele>
        <time>2023-10-12T18:00:48Z</time>
      </trkpt>
      <trkpt lat="48.70447" lon="7.16791">
        <ele>353.7</ele>
        <time>2023-10-12T18:00:54Z</time>
      </trkpt>
      <trkpt lat="48.70433" lon="7.16811">
        <ele>353.4</ele>
        <time>2023-10-12T18:01:00Z</time>
      </trkpt>
      <trkpt lat="48.70417" lon="7.16831">
        <ele>353.4</ele>
        <time>2023-10-12T18:01:07Z</time>
      </trkpt>
      <trkpt lat="48.70403" lon="7.16848">
        <ele>353.6</ele>
        <time>2023-10-12T18:01:14Z</time>
      </trkpt>
      <trkpt lat="48.704" lon="7.16848">
        <ele>353.7</ele>
        <time>2023-10-12T18:01:15Z</time>
      </trkpt>
      <trkpt lat="48.70387" lon="7.16827">
        <ele>354.7</ele>
        <time>2023-10-12T18:01:22Z</time>
      </trkpt>
      <trkpt lat="48.70373" lon="7.16807">
        <ele>355.6</ele>
        <time>2023-10-12T18:01:29Z</time>
      </trkpt>
      <trkpt lat="48.70356" lon="7.16794">
        <ele>356.2</ele>
        <time>2023-10-12T18:01:37Z</time>
      </trkpt>
      <trkpt lat="48.70338" lon="7.16782">
        <ele>356.7</ele>
        <time>2023-10-12T18:01:45Z</time>
      </trkpt>
      <trkpt lat="48.70326" lon="7.16758">
        <ele>357.3</ele>
        <time>2023-10-12T18:01:52Z</time>
      </trkpt>
      <trkpt lat="48.70322" lon="7.16729">
        <ele>357.7</ele>
        <time>2023-10-12T18:01:59Z</time>
      </trkpt>
      <trkpt lat="48.70325" lon="7.16701">
        <ele>357.9</ele>
        <time>2023-10-12T18:02:06Z</time>
      </trkpt>
      <trkpt lat="48.70313" lon="7.1668">
        <ele>358.2</ele>
        <time>2023-10-12T18:02:13Z</time>
      </trkpt>
      <trkpt lat="48.70298" lon="7.16657">
        <ele>358.1</ele>
        <time>2023-10-12T18:02:20Z</time>
      </trkpt>
      <trkpt lat="48.70286" lon="7.16636">
        <ele>358</ele>
        <time>2023-10-12T18:02:26Z</time>
      </trkpt>
      <trkpt lat="48.70274" lon="7.16613">
        <ele>358.8</ele>
        <time>2023-10-12T18:02:33Z</time>
      </trkpt>
      <trkpt lat="48.7026" lon="7.16589">
        <ele>359.2</ele>
        <time>2023-10-12T18:02:40Z</time>
      </trkpt>
      <trkpt lat="48.70246" lon="7.16566">
        <ele>359.2</ele>
        <time>2023-10-12T18:02:47Z</time>
      </trkpt>
      <trkpt lat="48.70232" lon="7.16544">
        <ele>359.3</ele>
        <time>2023-10-12T18:02:54Z</time>
      </trkpt>
      <trkpt lat="48.70218" lon="7.16522">
        <ele>359.6</ele>
        <time>2023-10-12T18:03:01Z</time>
      </trkpt>
      <trkpt lat="48.70203" lon="7.16503">
        <ele>360.4</ele>
        <time>2023-10-12T18:03:08Z</time>
      </trkpt>
      <trkpt lat="48.70188" lon="7.16486">
        <ele>360.5</ele>
        <time>2023-10-12T18:03:15Z</time>
      </trkpt>
      <trkpt lat="48.70171" lon="7.16466">
        <ele>360.7</ele>
        <time>2023-10-12T18:03:22Z</time>
      </trkpt>
      <trkpt lat="48.70158" lon="7.16448">
        <ele>361.1</ele>
        <time>2023-10-12T18:03:28Z</time>
      </trkpt>
      <trkpt lat="48.70145" lon="7.16428">
        <ele>361.1</ele>
        <time>2023-10-12T18:03:34Z</time>
      </trkpt>
      <trkpt lat="48.7013" lon="7.16409">
        <ele>361</ele>
        <time>2023-10-12T18:03:41Z</time>
      </trkpt>
      <trkpt lat="48.70114" lon="7.1639">
        <ele>360.4</ele>
        <time>2023-10-12T18:03:48Z</time>
      </trkpt>
      <trkpt lat="48.70112" lon="7.16381">
        <ele>360.2</ele>
        <time>2023-10-12T18:03:49Z</time>
      </trkpt>
      <trkpt lat="48.70114" lon="7.16352">
        <ele>359.5</ele>
        <time>2023-10-12T18:03:56Z</time>
      </trkpt>
      <trkpt lat="48.7012" lon="7.16323">
        <ele>359.3</ele>
        <time>2023-10-12T18:04:03Z</time>
      </trkpt>
      <trkpt lat="48.70127" lon="7.16295">
        <ele>358.7</ele>
        <time>2023-10-12T18:04:10Z</time>
      </trkpt>
      <trkpt lat="48.70135" lon="7.16269">
        <ele>358</ele>
        <time>2023-10-12T18:04:17Z</time>
      </trkpt>
      <trkpt lat="48.70146" lon="7.16245">
        <ele>357.4</ele>
        <time>2023-10-12T18:04:24Z</time>
      </trkpt>
      <trkpt lat="48.70156" lon="7.1622">
        <ele>356.6</ele>
        <time>2023-10-12T18:04:31Z</time>
      </trkpt>
      <trkpt lat="48.70165" lon="7.16195">
        <ele>355.7</ele>
        <time>2023-10-12T18:04:38Z</time>
      </trkpt>
      <trkpt lat="48.70175" lon="7.16172">
        <ele>355.2</ele>
        <time>2023-10-12T18:04:44Z</time>
      </trkpt>
      <trkpt lat="48.70185" lon="7.16148">
        <ele>354.5</ele>
        <time>2023-10-12T18:04:50Z</time>
      </trkpt>
      <trkpt lat="48.70197" lon="7.16125">
        <ele>353.9</ele>
        <time>2023-10-12T18:04:56Z</time>
      </trkpt>
      <trkpt lat="48.70207" lon="7.161">
        <ele>353.6</ele>
        <time>2023-10-12T18:05:02Z</time>
      </trkpt>
      <trkpt lat="48.70217" lon="7.16072">
        <ele>353.3</ele>
        <time>2023-10-12T18:05:09Z</time>
      </trkpt>
      <trkpt lat="48.70218" lon="7.16043">
        <ele>352.9</ele>
        <time>2023-10-12T18:05:16Z</time>
      </trkpt>
      <trkpt lat="48.70209" lon="7.16019">
        <ele>352.6</ele>
        <time>2023-10-12T18:05:22Z</time>
      </trkpt>
      <trkpt lat="48.70207" lon="7.15989">
        <ele>352.1</ele>
        <time>2023-10-12T18:05:29Z</time>
      </trkpt>
      <trkpt lat="48.70209" lon="7.15958">
        <ele>351.7</ele>
        <time>2023-10-12T18:05:36Z</time>
      </trkpt>
      <trkpt lat="48.70211" lon="7.15928">
        <ele>351.4</ele>
        <time>2023-10-12T18:05:43Z</time>
      </trkpt>
      <trkpt lat="48.70214" lon="7.15899">
        <ele>351.1</ele>
        <time>2023-10-12T18:05:50Z</time>
      </trkpt>
      <trkpt lat="48.70217" lon="7.15872">
        <ele>350.9</ele>
        <time>2023-10-12T18:05:56Z</time>
      </trkpt>
      <trkpt lat="48.70219" lon="7.15845">
        <ele>350.8</ele>
        <time>2023-10-12T18:06:02Z</time>
      </trkpt>
      <trkpt lat="48.70219" lon="7.15814">
        <ele>350.8</ele>
        <time>2023-10-12T18:06:09Z</time>
      </trkpt>
      <trkpt lat="48.70219" lon="7.15785">
        <ele>351.2</ele>
        <time>2023-10-12T18:06:16Z</time>
      </trkpt>
      <trkpt lat="48.70219" lon="7.15755">
        <ele>352.1</ele>
        <time>2023-10-12T18:06:23Z</time>
      </trkpt>
      <trkpt lat="48.70219" lon="7.15727">
        <ele>353</ele>
        <time>2023-10-12T18:06:30Z</time>
      </trkpt>
      <trkpt lat="48.7022" lon="7.15696">
        <ele>354.2</ele>
        <time>2023-10-12T18:06:38Z</time>
      </trkpt>
      <trkpt lat="48.70219" lon="7.15666">
        <ele>355.7</ele>
        <time>2023-10-12T18:06:46Z</time>
      </trkpt>
      <trkpt lat="48.70219" lon="7.15635">
        <ele>357.2</ele>
        <time>2023-10-12T18:06:54Z</time>
      </trkpt>
      <trkpt lat="48.70218" lon="7.15604">
        <ele>358.6</ele>
        <time>2023-10-12T18:07:02Z</time>
      </trkpt>
      <trkpt lat="48.70217" lon="7.15577">
        <ele>359.9</ele>
        <time>2023-10-12T18:07:09Z</time>
      </trkpt>
      <trkpt lat="48.70215" lon="7.15549">
        <ele>360.9</ele>
        <time>2023-10-12T18:07:16Z</time>
      </trkpt>
      <trkpt lat="48.70213" lon="7.15518">
        <ele>361.8</ele>
        <time>2023-10-12T18:07:24Z</time>
      </trkpt>
      <trkpt lat="48.70211" lon="7.15489">
        <ele>362.5</ele>
        <time>2023-10-12T18:07:31Z</time>
      </trkpt>
      <trkpt lat="48.70209" lon="7.15462">
        <ele>362.9</ele>
        <time>2023-10-12T18:07:38Z</time>
      </trkpt>
      <trkpt lat="48.70208" lon="7.15434">
        <ele>363</ele>
        <time>2023-10-12T18:07:45Z</time>
      </trkpt>
      <trkpt lat="48.70206" lon="7.15407">
        <ele>363.1</ele>
        <time>2023-10-12T18:07:52Z</time>
      </trkpt>
      <trkpt lat="48.70204" lon="7.15379">
        <ele>362.5</ele>
        <time>2023-10-12T18:07:59Z</time>
      </trkpt>
      <trkpt lat="48.70203" lon="7.15351">
        <ele>361.7</ele>
        <time>2023-10-12T18:08:06Z</time>
      </trkpt>
      <trkpt lat="48.70208" lon="7.15322">
        <ele>361</ele>
        <time>2023-10-12T18:08:13Z</time>
      </trkpt>
      <trkpt lat="48.70219" lon="7.15301">
        <ele>360.3</ele>
        <time>2023-10-12T18:08:19Z</time>
      </trkpt>
      <trkpt lat="48.70231" lon="7.1528">
        <ele>359.9</ele>
        <time>2023-10-12T18:08:25Z</time>
      </trkpt>
      <trkpt lat="48.70244" lon="7.1526">
        <ele>359.6</ele>
        <time>2023-10-12T18:08:31Z</time>
      </trkpt>
      <trkpt lat="48.70261" lon="7.15243">
        <ele>359.4</ele>
        <time>2023-10-12T18:08:38Z</time>
      </trkpt>
      <trkpt lat="48.70279" lon="7.15229">
        <ele>359.3</ele>
        <time>2023-10-12T18:08:45Z</time>
      </trkpt>
      <trkpt lat="48.70297" lon="7.15221">
        <ele>359.2</ele>
        <time>2023-10-12T18:08:51Z</time>
      </trkpt>
      <trkpt lat="48.70316" lon="7.15227">
        <ele>359.3</ele>
        <time>2023-10-12T18:08:58Z</time>
      </trkpt>
      <trkpt lat="48.70331" lon="7.15243">
        <ele>359.5</ele>
        <time>2023-10-12T18:09:05Z</time>
      </trkpt>
      <trkpt lat="48.70347" lon="7.15257">
        <ele>359.5</ele>
        <time>2023-10-12T18:09:11Z</time>
      </trkpt>
      <trkpt lat="48.70366" lon="7.15267">
        <ele>359.2</ele>
        <time>2023-10-12T18:09:17Z</time>
      </trkpt>
      <trkpt lat="48.70384" lon="7.15274">
        <ele>359</ele>
        <time>2023-10-12T18:09:23Z</time>
      </trkpt>
      <trkpt lat="48.70403" lon="7.15282">
        <ele>359</ele>
        <time>2023-10-12T18:09:30Z</time>
      </trkpt>
      <trkpt lat="48.70421" lon="7.15288">
        <ele>359.1</ele>
        <time>2023-10-12T18:09:36Z</time>
      </trkpt>
      <trkpt lat="48.70441" lon="7.15296">
        <ele>358.9</ele>
        <time>2023-10-12T18:09:43Z</time>
      </trkpt>
      <trkpt lat="48.70459" lon="7.15306">
        <ele>358.8</ele>
        <time>2023-10-12T18:09:50Z</time>
      </trkpt>
      <trkpt lat="48.70477" lon="7.1532">
        <ele>358.6</ele>
        <time>2023-10-12T18:09:57Z</time>
      </trkpt>
      <trkpt lat="48.70495" lon="7.15335">
        <ele>358.3</ele>
        <time>2023-10-12T18:10:04Z</time>
      </trkpt>
      <trkpt lat="48.70511" lon="7.1535">
        <ele>357.8</ele>
        <time>2023-10-12T18:10:10Z</time>
      </trkpt>
      <trkpt lat="48.70526" lon="7.15365">
        <ele>357.5</ele>
        <time>2023-10-12T18:10:16Z</time>
      </trkpt>
      <trkpt lat="48.70543" lon="7.15378">
        <ele>357.2</ele>
        <time>2023-10-12T18:10:22Z</time>
      </trkpt>
      <trkpt lat="48.70561" lon="7.1539">
        <ele>356.8</ele>
        <time>2023-10-12T18:10:28Z</time>
      </trkpt>
      <trkpt lat="48.70579" lon="7.15398">
        <ele>356.7</ele>
        <time>2023-10-12T18:10:34Z</time>
      </trkpt>
      <trkpt lat="48.70596" lon="7.15407">
        <ele>356.5</ele>
        <time>2023-10-12T18:10:40Z</time>
      </trkpt>
      <trkpt lat="48.70616" lon="7.15417">
        <ele>356.1</ele>
        <time>2023-10-12T18:10:47Z</time>
      </trkpt>
      <trkpt lat="48.70634" lon="7.15426">
        <ele>355.7</ele>
        <time>2023-10-12T18:10:53Z</time>
      </trkpt>
      <trkpt lat="48.70653" lon="7.15435">
        <ele>355.6</ele>
        <time>2023-10-12T18:11:00Z</time>
      </trkpt>
      <trkpt lat="48.70673" lon="7.15445">
        <ele>355</ele>
        <time>2023-10-12T18:11:07Z</time>
      </trkpt>
      <trkpt lat="48.70691" lon="7.15454">
        <ele>354.3</ele>
        <time>2023-10-12T18:11:13Z</time>
      </trkpt>
      <trkpt lat="48.70708" lon="7.15466">
        <ele>353.3</ele>
        <time>2023-10-12T18:11:19Z</time>
      </trkpt>
      <trkpt lat="48.70725" lon="7.15479">
        <ele>352.2</ele>
        <time>2023-10-12T18:11:25Z</time>
      </trkpt>
      <trkpt lat="48.70742" lon="7.15495">
        <ele>351.4</ele>
        <time>2023-10-12T18:11:31Z</time>
      </trkpt>
      <trkpt lat="48.70758" lon="7.15512">
        <ele>350.7</ele>
        <time>2023-10-12T18:11:37Z</time>
      </trkpt>
      <trkpt lat="48.70773" lon="7.15528">
        <ele>349.8</ele>
        <time>2023-10-12T18:11:43Z</time>
      </trkpt>
      <trkpt lat="48.70788" lon="7.15545">
        <ele>349.2</ele>
        <time>2023-10-12T18:11:49Z</time>
      </trkpt>
      <trkpt lat="48.70804" lon="7.15564">
        <ele>348.4</ele>
        <time>2023-10-12T18:11:56Z</time>
      </trkpt>
      <trkpt lat="48.7082" lon="7.15581">
        <ele>347.7</ele>
        <time>2023-10-12T18:12:02Z</time>
      </trkpt>
      <trkpt lat="48.70837" lon="7.15597">
        <ele>347.1</ele>
        <time>2023-10-12T18:12:08Z</time>
      </trkpt>
      <trkpt lat="48.70853" lon="7.15611">
        <ele>346.4</ele>
        <time>2023-10-12T18:12:14Z</time>
      </trkpt>
      <trkpt lat="48.70869" lon="7.15624">
        <ele>345.7</ele>
        <time>2023-10-12T18:12:20Z</time>
      </trkpt>
      <trkpt lat="48.70885" lon="7.15638">
        <ele>344.9</ele>
        <time>2023-10-12T18:12:26Z</time>
      </trkpt>
      <trkpt lat="48.70902" lon="7.15654">
        <ele>343.9</ele>
        <time>2023-10-12T18:12:32Z</time>
      </trkpt>
      <trkpt lat="48.7092" lon="7.15667">
        <ele>342.4</ele>
        <time>2023-10-12T18:12:38Z</time>
      </trkpt>
      <trkpt lat="48.70939" lon="7.15678">
        <ele>341.1</ele>
        <time>2023-10-12T18:12:44Z</time>
      </trkpt>
      <trkpt lat="48.70958" lon="7.15683">
        <ele>341.6</ele>
        <time>2023-10-12T18:12:49Z</time>
      </trkpt>
      <trkpt lat="48.70978" lon="7.15684">
        <ele>341</ele>
        <time>2023-10-12T18:12:55Z</time>
      </trkpt>
      <trkpt lat="48.70997" lon="7.1569">
        <ele>340</ele>
        <time>2023-10-12T18:13:01Z</time>
      </trkpt>
      <trkpt lat="48.71017" lon="7.15696">
        <ele>338.7</ele>
        <time>2023-10-12T18:13:08Z</time>
      </trkpt>
      <trkpt lat="48.71037" lon="7.15701">
        <ele>337.3</ele>
        <time>2023-10-12T18:13:15Z</time>
      </trkpt>
      <trkpt lat="48.71056" lon="7.15708">
        <ele>336.2</ele>
        <time>2023-10-12T18:13:21Z</time>
      </trkpt>
      <trkpt lat="48.71074" lon="7.1572">
        <ele>335.5</ele>
        <time>2023-10-12T18:13:27Z</time>
      </trkpt>
      <trkpt lat="48.71092" lon="7.15731">
        <ele>335.1</ele>
        <time>2023-10-12T18:13:33Z</time>
      </trkpt>
      <trkpt lat="48.71109" lon="7.15743">
        <ele>335</ele>
        <time>2023-10-12T18:13:39Z</time>
      </trkpt>
      <trkpt lat="48.71127" lon="7.15754">
        <ele>335</ele>
        <time>2023-10-12T18:13:45Z</time>
      </trkpt>
      <trkpt lat="48.71147" lon="7.15764">
        <ele>335</ele>
        <time>2023-10-12T18:13:52Z</time>
      </trkpt>
      <trkpt lat="48.71165" lon="7.15777">
        <ele>335.2</ele>
        <time>2023-10-12T18:13:59Z</time>
      </trkpt>
      <trkpt lat="48.71182" lon="7.15787">
        <ele>335.4</ele>
        <time>2023-10-12T18:14:05Z</time>
      </trkpt>
      <trkpt lat="48.712" lon="7.15794">
        <ele>335.7</ele>
        <time>2023-10-12T18:14:11Z</time>
      </trkpt>
      <trkpt lat="48.71217" lon="7.15805">
        <ele>336.1</ele>
        <time>2023-10-12T18:14:18Z</time>
      </trkpt>
      <trkpt lat="48.71232" lon="7.15825">
        <ele>336.1</ele>
        <time>2023-10-12T18:14:25Z</time>
      </trkpt>
      <trkpt lat="48.71245" lon="7.15846">
        <ele>335.8</ele>
        <time>2023-10-12T18:14:32Z</time>
      </trkpt>
      <trkpt lat="48.71258" lon="7.1587">
        <ele>335.2</ele>
        <time>2023-10-12T18:14:39Z</time>
      </trkpt>
      <trkpt lat="48.71269" lon="7.15892">
        <ele>334.9</ele>
        <time>2023-10-12T18:14:45Z</time>
      </trkpt>
      <trkpt lat="48.71281" lon="7.15913">
        <ele>334.5</ele>
        <time>2023-10-12T18:14:51Z</time>
      </trkpt>
      <trkpt lat="48.71294" lon="7.15938">
        <ele>333.8</ele>
        <time>2023-10-12T18:14:58Z</time>
      </trkpt>
      <trkpt lat="48.71306" lon="7.1596">
        <ele>332.8</ele>
        <time>2023-10-12T18:15:05Z</time>
      </trkpt>
      <trkpt lat="48.71311" lon="7.15989">
        <ele>330.9</ele>
        <time>2023-10-12T18:15:12Z</time>
      </trkpt>
      <trkpt lat="48.71318" lon="7.16016">
        <ele>328.9</ele>
        <time>2023-10-12T18:15:18Z</time>
      </trkpt>
      <trkpt lat="48.71325" lon="7.16043">
        <ele>327.2</ele>
        <time>2023-10-12T18:15:24Z</time>
      </trkpt>
      <trkpt lat="48.71332" lon="7.16068">
        <ele>325.9</ele>
        <time>2023-10-12T18:15:30Z</time>
      </trkpt>
      <trkpt lat="48.71331" lon="7.16096">
        <ele>325.2</ele>
        <time>2023-10-12T18:15:37Z</time>
      </trkpt>
      <trkpt lat="48.71315" lon="7.16117">
        <ele>324.2</ele>
        <time>2023-10-12T18:15:44Z</time>
      </trkpt>
      <trkpt lat="48.71303" lon="7.16139">
        <ele>323.4</ele>
        <time>2023-10-12T18:15:50Z</time>
      </trkpt>
      <trkpt lat="48.71305" lon="7.16167">
        <ele>322.5</ele>
        <time>2023-10-12T18:15:56Z</time>
      </trkpt>
      <trkpt lat="48.71318" lon="7.1619">
        <ele>321.8</ele>
        <time>2023-10-12T18:16:03Z</time>
      </trkpt>
      <trkpt lat="48.71318" lon="7.16193">
        <ele>321.8</ele>
        <time>2023-10-12T18:16:04Z</time>
      </trkpt>
      <trkpt lat="48.71314" lon="7.16198">
        <ele>321.8</ele>
        <time>2023-10-12T18:16:06Z</time>
      </trkpt>
      <trkpt lat="48.71294" lon="7.162">
        <ele>321.4</ele>
        <time>2023-10-12T18:16:11Z</time>
      </trkpt>
      <trkpt lat="48.71277" lon="7.16194">
        <ele>320.8</ele>
        <time>2023-10-12T18:16:16Z</time>
      </trkpt>
      <trkpt lat="48.71259" lon="7.16181">
        <ele>320.2</ele>
        <time>2023-10-12T18:16:22Z</time>
      </trkpt>
      <trkpt lat="48.71242" lon="7.16167">
        <ele>320</ele>
        <time>2023-10-12T18:16:28Z</time>
      </trkpt>
      <trkpt lat="48.71226" lon="7.16156">
        <ele>319.9</ele>
        <time>2023-10-12T18:16:34Z</time>
      </trkpt>
      <trkpt lat="48.71209" lon="7.16143">
        <ele>319.7</ele>
        <time>2023-10-12T18:16:40Z</time>
      </trkpt>
      <trkpt lat="48.71191" lon="7.16129">
        <ele>319.1</ele>
        <time>2023-10-12T18:16:47Z</time>
      </trkpt>
      <trkpt lat="48.71174" lon="7.16119">
        <ele>318</ele>
        <time>2023-10-12T18:16:54Z</time>
      </trkpt>
      <trkpt lat="48.71156" lon="7.16121">
        <ele>316.5</ele>
        <time>2023-10-12T18:17:01Z</time>
      </trkpt>
      <trkpt lat="48.71137" lon="7.16123">
        <ele>315.8</ele>
        <time>2023-10-12T18:17:07Z</time>
      </trkpt>
      <trkpt lat="48.71117" lon="7.16117">
        <ele>315.8</ele>
        <time>2023-10-12T18:17:14Z</time>
      </trkpt>
      <trkpt lat="48.71104" lon="7.16111">
        <ele>315.9</ele>
        <time>2023-10-12T18:17:20Z</time>
      </trkpt>
      <trkpt lat="48.71101" lon="7.16117">
        <ele>315.9</ele>
        <time>2023-10-12T18:17:23Z</time>
      </trkpt>
      <trkpt lat="48.71097" lon="7.16148">
        <ele>316.3</ele>
        <time>2023-10-12T18:17:31Z</time>
      </trkpt>
      <trkpt lat="48.71095" lon="7.16179">
        <ele>317.1</ele>
        <time>2023-10-12T18:17:39Z</time>
      </trkpt>
      <trkpt lat="48.71092" lon="7.16207">
        <ele>318.1</ele>
        <time>2023-10-12T18:17:47Z</time>
      </trkpt>
      <trkpt lat="48.71102" lon="7.16232">
        <ele>318.1</ele>
        <time>2023-10-12T18:17:55Z</time>
      </trkpt>
      <trkpt lat="48.71114" lon="7.16253">
        <ele>317.9</ele>
        <time>2023-10-12T18:18:02Z</time>
      </trkpt>
      <trkpt lat="48.71129" lon="7.16271">
        <ele>317.5</ele>
        <time>2023-10-12T18:18:10Z</time>
      </trkpt>
      <trkpt lat="48.71139" lon="7.16277">
        <ele>317.2</ele>
        <time>2023-10-12T18:18:14Z</time>
      </trkpt>
    </trkseg>
  </trk>
</gpx>